sensor_id;sensor_type;location;lat;lon;timestamp;temperature;humidity
14577;DHT22;7375;46.072;14.470;2022-08-19T00:00:40;25.60;62.00
14577;DHT22;7375;46.072;14.470;2022-08-19T00:03:07;25.60;62.10
14577;DHT22;7375;46.072;14.470;2022-08-19T00:05:37;25.60;62.10
14577;DHT22;7375;46.072;14.470;2022-08-19T00:08:04;25.60;62.10
14577;DHT22;7375;46.072;14.470;2022-08-19T00:10:34;25.60;62.10
14577;DHT22;7375;46.072;14.470;2022-08-19T00:13:01;25.50;62.00
14577;DHT22;7375;46.072;14.470;2022-08-19T00:15:29;25.50;62.00
14577;DHT22;7375;46.072;14.470;2022-08-19T00:17:57;25.50;62.10
14577;DHT22;7375;46.072;14.470;2022-08-19T00:20:25;25.50;62.10
14577;DHT22;7375;46.072;14.470;2022-08-19T00:22:52;25.50;62.10
14577;DHT22;7375;46.072;14.470;2022-08-19T00:25:19;25.50;62.10
14577;DHT22;7375;46.072;14.470;2022-08-19T00:27:49;25.50;62.20
14577;DHT22;7375;46.072;14.470;2022-08-19T00:30:19;25.50;62.30
14577;DHT22;7375;46.072;14.470;2022-08-19T00:32:54;25.50;62.30
14577;DHT22;7375;46.072;14.470;2022-08-19T00:35:23;25.50;62.30
14577;DHT22;7375;46.072;14.470;2022-08-19T00:38:04;25.50;62.30
14577;DHT22;7375;46.072;14.470;2022-08-19T00:40:32;25.50;62.20
14577;DHT22;7375;46.072;14.470;2022-08-19T00:42:58;25.50;62.30
14577;DHT22;7375;46.072;14.470;2022-08-19T00:45:28;25.50;62.30
14577;DHT22;7375;46.072;14.470;2022-08-19T00:48:00;25.50;62.30
14577;DHT22;7375;46.072;14.470;2022-08-19T00:50:30;25.50;62.30
14577;DHT22;7375;46.072;14.470;2022-08-19T00:52:57;25.50;62.30
14577;DHT22;7375;46.072;14.470;2022-08-19T00:55:30;25.50;62.40
14577;DHT22;7375;46.072;14.470;2022-08-19T00:57:58;25.50;62.40
14577;DHT22;7375;46.072;14.470;2022-08-19T01:00:27;25.40;62.30
14577;DHT22;7375;46.072;14.470;2022-08-19T01:02:54;25.40;62.30
14577;DHT22;7375;46.072;14.470;2022-08-19T01:05:24;25.40;62.30
14577;DHT22;7375;46.072;14.470;2022-08-19T01:07:57;25.40;62.30
14577;DHT22;7375;46.072;14.470;2022-08-19T01:10:26;25.40;62.30
14577;DHT22;7375;46.072;14.470;2022-08-19T01:12:53;25.40;62.30
14577;DHT22;7375;46.072;14.470;2022-08-19T01:15:22;25.40;62.30
14577;DHT22;7375;46.072;14.470;2022-08-19T01:17:53;25.40;62.30
14577;DHT22;7375;46.072;14.470;2022-08-19T01:20:22;25.40;62.40
14577;DHT22;7375;46.072;14.470;2022-08-19T01:22:55;25.40;62.40
14577;DHT22;7375;46.072;14.470;2022-08-19T01:25:26;25.40;62.30
14577;DHT22;7375;46.072;14.470;2022-08-19T01:27:54;25.40;62.40
14577;DHT22;7375;46.072;14.470;2022-08-19T01:30:23;25.40;62.40
14577;DHT22;7375;46.072;14.470;2022-08-19T01:32:50;25.40;62.40
14577;DHT22;7375;46.072;14.470;2022-08-19T01:35:21;25.40;62.40
14577;DHT22;7375;46.072;14.470;2022-08-19T01:37:49;25.40;62.40
14577;DHT22;7375;46.072;14.470;2022-08-19T01:40:20;25.40;62.30
14577;DHT22;7375;46.072;14.470;2022-08-19T01:42:50;25.40;62.30
14577;DHT22;7375;46.072;14.470;2022-08-19T01:45:18;25.40;62.30
14577;DHT22;7375;46.072;14.470;2022-08-19T01:47:48;25.40;62.40
14577;DHT22;7375;46.072;14.470;2022-08-19T01:50:15;25.40;62.30
14577;DHT22;7375;46.072;14.470;2022-08-19T01:52:43;25.40;62.40
14577;DHT22;7375;46.072;14.470;2022-08-19T01:55:11;25.40;62.30
14577;DHT22;7375;46.072;14.470;2022-08-19T01:57:40;25.40;62.40
14577;DHT22;7375;46.072;14.470;2022-08-19T02:00:10;25.40;62.40
14577;DHT22;7375;46.072;14.470;2022-08-19T02:02:37;25.40;62.40
14577;DHT22;7375;46.072;14.470;2022-08-19T02:05:04;25.40;62.40
14577;DHT22;7375;46.072;14.470;2022-08-19T02:07:32;25.40;62.40
14577;DHT22;7375;46.072;14.470;2022-08-19T02:10:00;25.40;62.40
14577;DHT22;7375;46.072;14.470;2022-08-19T02:12:28;25.40;62.40
14577;DHT22;7375;46.072;14.470;2022-08-19T02:14:57;25.40;62.50
14577;DHT22;7375;46.072;14.470;2022-08-19T02:17:28;25.40;62.60
14577;DHT22;7375;46.072;14.470;2022-08-19T02:19:55;25.40;62.60
14577;DHT22;7375;46.072;14.470;2022-08-19T02:22:22;25.40;62.60
14577;DHT22;7375;46.072;14.470;2022-08-19T02:24:49;25.40;62.60
14577;DHT22;7375;46.072;14.470;2022-08-19T02:27:16;25.40;62.60
14577;DHT22;7375;46.072;14.470;2022-08-19T02:29:43;25.40;62.60
14577;DHT22;7375;46.072;14.470;2022-08-19T02:32:16;25.40;62.60
14577;DHT22;7375;46.072;14.470;2022-08-19T02:34:46;25.40;62.60
14577;DHT22;7375;46.072;14.470;2022-08-19T02:37:13;25.40;62.60
14577;DHT22;7375;46.072;14.470;2022-08-19T02:39:54;25.40;62.60
14577;DHT22;7375;46.072;14.470;2022-08-19T02:42:21;25.40;62.70
14577;DHT22;7375;46.072;14.470;2022-08-19T02:44:48;25.40;62.70
14577;DHT22;7375;46.072;14.470;2022-08-19T02:47:16;25.40;62.80
14577;DHT22;7375;46.072;14.470;2022-08-19T02:49:47;25.30;62.70
14577;DHT22;7375;46.072;14.470;2022-08-19T02:52:15;25.40;62.80
14577;DHT22;7375;46.072;14.470;2022-08-19T02:54:42;25.30;62.70
14577;DHT22;7375;46.072;14.470;2022-08-19T02:57:09;25.30;62.80
14577;DHT22;7375;46.072;14.470;2022-08-19T02:59:35;25.30;62.80
14577;DHT22;7375;46.072;14.470;2022-08-19T03:02:02;25.30;62.80
14577;DHT22;7375;46.072;14.470;2022-08-19T03:04:31;25.30;62.90
14577;DHT22;7375;46.072;14.470;2022-08-19T03:06:58;25.30;62.80
14577;DHT22;7375;46.072;14.470;2022-08-19T03:09:24;25.30;62.80
14577;DHT22;7375;46.072;14.470;2022-08-19T03:11:52;25.30;62.80
14577;DHT22;7375;46.072;14.470;2022-08-19T03:14:21;25.30;62.80
14577;DHT22;7375;46.072;14.470;2022-08-19T03:16:49;25.30;62.80
14577;DHT22;7375;46.072;14.470;2022-08-19T03:19:17;25.30;62.90
14577;DHT22;7375;46.072;14.470;2022-08-19T03:21:46;25.30;62.90
14577;DHT22;7375;46.072;14.470;2022-08-19T03:24:13;25.30;62.90
14577;DHT22;7375;46.072;14.470;2022-08-19T03:26:44;25.20;62.90
14577;DHT22;7375;46.072;14.470;2022-08-19T03:29:11;25.20;62.90
14577;DHT22;7375;46.072;14.470;2022-08-19T03:31:38;25.20;63.00
14577;DHT22;7375;46.072;14.470;2022-08-19T03:34:05;25.20;62.90
14577;DHT22;7375;46.072;14.470;2022-08-19T03:36:32;25.20;62.90
14577;DHT22;7375;46.072;14.470;2022-08-19T03:39:01;25.20;62.90
14577;DHT22;7375;46.072;14.470;2022-08-19T03:41:28;25.20;63.00
14577;DHT22;7375;46.072;14.470;2022-08-19T03:43:56;25.20;63.00
14577;DHT22;7375;46.072;14.470;2022-08-19T03:46:23;25.20;63.00
14577;DHT22;7375;46.072;14.470;2022-08-19T03:48:52;25.20;63.10
14577;DHT22;7375;46.072;14.470;2022-08-19T03:51:21;25.20;63.10
14577;DHT22;7375;46.072;14.470;2022-08-19T03:53:51;25.20;63.10
14577;DHT22;7375;46.072;14.470;2022-08-19T03:56:23;25.20;63.10
14577;DHT22;7375;46.072;14.470;2022-08-19T03:58:51;25.20;63.10
14577;DHT22;7375;46.072;14.470;2022-08-19T04:01:19;25.20;63.10
14577;DHT22;7375;46.072;14.470;2022-08-19T04:03:46;25.20;63.10
14577;DHT22;7375;46.072;14.470;2022-08-19T04:06:14;25.20;63.10
14577;DHT22;7375;46.072;14.470;2022-08-19T04:08:44;25.20;63.10
14577;DHT22;7375;46.072;14.470;2022-08-19T04:11:12;25.20;63.20
14577;DHT22;7375;46.072;14.470;2022-08-19T04:13:41;25.20;63.20
14577;DHT22;7375;46.072;14.470;2022-08-19T04:16:11;25.20;63.20
14577;DHT22;7375;46.072;14.470;2022-08-19T04:18:41;25.20;63.20
14577;DHT22;7375;46.072;14.470;2022-08-19T04:21:08;25.20;63.20
14577;DHT22;7375;46.072;14.470;2022-08-19T04:23:37;25.10;63.10
14577;DHT22;7375;46.072;14.470;2022-08-19T04:26:04;25.10;63.10
14577;DHT22;7375;46.072;14.470;2022-08-19T04:28:34;25.10;63.20
14577;DHT22;7375;46.072;14.470;2022-08-19T04:31:03;25.10;63.20
14577;DHT22;7375;46.072;14.470;2022-08-19T04:33:30;25.10;63.20
14577;DHT22;7375;46.072;14.470;2022-08-19T04:35:57;25.10;63.20
14577;DHT22;7375;46.072;14.470;2022-08-19T04:38:25;25.20;63.30
14577;DHT22;7375;46.072;14.470;2022-08-19T04:40:52;25.10;63.20
14577;DHT22;7375;46.072;14.470;2022-08-19T04:43:37;25.10;63.20
14577;DHT22;7375;46.072;14.470;2022-08-19T04:46:09;25.10;63.20
14577;DHT22;7375;46.072;14.470;2022-08-19T04:48:36;25.10;63.20
14577;DHT22;7375;46.072;14.470;2022-08-19T04:51:05;25.10;63.20
14577;DHT22;7375;46.072;14.470;2022-08-19T04:53:33;25.10;63.20
14577;DHT22;7375;46.072;14.470;2022-08-19T04:56:03;25.10;63.30
14577;DHT22;7375;46.072;14.470;2022-08-19T04:58:33;25.10;63.30
14577;DHT22;7375;46.072;14.470;2022-08-19T05:01:00;25.10;63.20
14577;DHT22;7375;46.072;14.470;2022-08-19T05:03:29;25.10;63.30
14577;DHT22;7375;46.072;14.470;2022-08-19T05:05:59;25.10;63.30
14577;DHT22;7375;46.072;14.470;2022-08-19T05:08:33;25.10;63.40
14577;DHT22;7375;46.072;14.470;2022-08-19T05:11:08;25.10;63.30
14577;DHT22;7375;46.072;14.470;2022-08-19T05:13:37;25.10;63.30
14577;DHT22;7375;46.072;14.470;2022-08-19T05:16:04;25.10;63.40
14577;DHT22;7375;46.072;14.470;2022-08-19T05:18:33;25.10;63.30
14577;DHT22;7375;46.072;14.470;2022-08-19T05:21:18;25.10;63.40
14577;DHT22;7375;46.072;14.470;2022-08-19T05:24:03;25.10;63.30
14577;DHT22;7375;46.072;14.470;2022-08-19T05:26:33;25.10;63.30
14577;DHT22;7375;46.072;14.470;2022-08-19T05:29:01;25.10;63.30
14577;DHT22;7375;46.072;14.470;2022-08-19T05:31:28;25.10;63.30
14577;DHT22;7375;46.072;14.470;2022-08-19T05:33:56;25.10;63.20
14577;DHT22;7375;46.072;14.470;2022-08-19T05:36:28;25.10;63.20
14577;DHT22;7375;46.072;14.470;2022-08-19T05:38:56;25.10;63.20
14577;DHT22;7375;46.072;14.470;2022-08-19T05:41:26;25.10;63.30
14577;DHT22;7375;46.072;14.470;2022-08-19T05:43:56;25.10;63.30
14577;DHT22;7375;46.072;14.470;2022-08-19T05:46:22;25.10;63.20
14577;DHT22;7375;46.072;14.470;2022-08-19T05:48:57;25.20;63.20
14577;DHT22;7375;46.072;14.470;2022-08-19T05:51:24;25.20;63.10
14577;DHT22;7375;46.072;14.470;2022-08-19T05:53:51;25.20;63.10
14577;DHT22;7375;46.072;14.470;2022-08-19T05:56:18;25.20;63.10
14577;DHT22;7375;46.072;14.470;2022-08-19T05:58:48;25.20;63.10
14577;DHT22;7375;46.072;14.470;2022-08-19T06:01:15;25.20;63.10
14577;DHT22;7375;46.072;14.470;2022-08-19T06:03:43;25.20;63.10
14577;DHT22;7375;46.072;14.470;2022-08-19T06:06:11;25.20;63.10
14577;DHT22;7375;46.072;14.470;2022-08-19T06:08:39;25.20;63.10
14577;DHT22;7375;46.072;14.470;2022-08-19T06:11:12;25.20;63.10
14577;DHT22;7375;46.072;14.470;2022-08-19T06:13:39;25.20;63.10
14577;DHT22;7375;46.072;14.470;2022-08-19T06:16:12;25.20;63.00
14577;DHT22;7375;46.072;14.470;2022-08-19T06:18:38;25.20;63.00
14577;DHT22;7375;46.072;14.470;2022-08-19T06:21:05;25.20;63.00
14577;DHT22;7375;46.072;14.470;2022-08-19T06:23:36;25.20;62.90
14577;DHT22;7375;46.072;14.470;2022-08-19T06:26:04;25.20;62.90
14577;DHT22;7375;46.072;14.470;2022-08-19T06:28:31;25.30;62.90
14577;DHT22;7375;46.072;14.470;2022-08-19T06:30:58;25.30;62.80
14577;DHT22;7375;46.072;14.470;2022-08-19T06:33:27;25.30;62.80
14577;DHT22;7375;46.072;14.470;2022-08-19T06:35:53;25.30;62.80
14577;DHT22;7375;46.072;14.470;2022-08-19T06:38:21;25.30;62.70
14577;DHT22;7375;46.072;14.470;2022-08-19T06:40:50;25.40;63.30
14577;DHT22;7375;46.072;14.470;2022-08-19T06:43:17;25.40;62.50
14577;DHT22;7375;46.072;14.470;2022-08-19T06:46:02;25.40;62.30
14577;DHT22;7375;46.072;14.470;2022-08-19T06:48:29;25.40;62.30
14577;DHT22;7375;46.072;14.470;2022-08-19T06:50:57;25.40;62.30
14577;DHT22;7375;46.072;14.470;2022-08-19T06:53:23;25.40;62.40
14577;DHT22;7375;46.072;14.470;2022-08-19T06:55:56;25.40;62.40
14577;DHT22;7375;46.072;14.470;2022-08-19T06:58:25;25.40;62.40
14577;DHT22;7375;46.072;14.470;2022-08-19T07:00:52;25.40;62.50
14577;DHT22;7375;46.072;14.470;2022-08-19T07:03:19;25.40;63.10
14577;DHT22;7375;46.072;14.470;2022-08-19T07:05:49;25.40;62.50
14577;DHT22;7375;46.072;14.470;2022-08-19T07:08:16;25.40;62.60
14577;DHT22;7375;46.072;14.470;2022-08-19T07:10:43;25.40;62.50
14577;DHT22;7375;46.072;14.470;2022-08-19T07:13:12;25.40;62.50
14577;DHT22;7375;46.072;14.470;2022-08-19T07:15:39;25.40;62.50
14577;DHT22;7375;46.072;14.470;2022-08-19T07:18:11;25.40;62.50
14577;DHT22;7375;46.072;14.470;2022-08-19T07:20:41;25.40;62.40
14577;DHT22;7375;46.072;14.470;2022-08-19T07:23:08;25.40;62.40
14577;DHT22;7375;46.072;14.470;2022-08-19T07:25:38;25.40;62.40
14577;DHT22;7375;46.072;14.470;2022-08-19T07:28:05;25.40;62.40
14577;DHT22;7375;46.072;14.470;2022-08-19T07:30:37;25.40;62.40
14577;DHT22;7375;46.072;14.470;2022-08-19T07:33:06;25.40;62.40
14577;DHT22;7375;46.072;14.470;2022-08-19T07:35:36;25.40;62.40
14577;DHT22;7375;46.072;14.470;2022-08-19T07:38:03;25.40;62.40
14577;DHT22;7375;46.072;14.470;2022-08-19T07:40:33;25.40;62.40
14577;DHT22;7375;46.072;14.470;2022-08-19T07:43:00;25.40;62.40
14577;DHT22;7375;46.072;14.470;2022-08-19T07:45:27;25.40;62.40
14577;DHT22;7375;46.072;14.470;2022-08-19T07:47:59;25.40;62.40
14577;DHT22;7375;46.072;14.470;2022-08-19T07:50:26;25.40;62.30
14577;DHT22;7375;46.072;14.470;2022-08-19T07:52:55;25.40;62.30
14577;DHT22;7375;46.072;14.470;2022-08-19T07:55:24;25.40;62.30
14577;DHT22;7375;46.072;14.470;2022-08-19T07:57:51;25.50;62.30
14577;DHT22;7375;46.072;14.470;2022-08-19T08:00:21;25.50;62.30
14577;DHT22;7375;46.072;14.470;2022-08-19T08:02:48;25.50;62.20
14577;DHT22;7375;46.072;14.470;2022-08-19T08:05:16;25.60;62.10
14577;DHT22;7375;46.072;14.470;2022-08-19T08:08:00;25.60;62.00
14577;DHT22;7375;46.072;14.470;2022-08-19T08:10:59;25.70;61.70
14577;DHT22;7375;46.072;14.470;2022-08-19T08:13:26;25.80;61.60
14577;DHT22;7375;46.072;14.470;2022-08-19T08:15:53;25.80;61.60
14577;DHT22;7375;46.072;14.470;2022-08-19T08:18:23;25.70;61.60
14577;DHT22;7375;46.072;14.470;2022-08-19T08:20:51;25.80;61.60
14577;DHT22;7375;46.072;14.470;2022-08-19T08:23:18;25.70;61.50
14577;DHT22;7375;46.072;14.470;2022-08-19T08:25:51;25.80;61.50
14577;DHT22;7375;46.072;14.470;2022-08-19T08:28:20;25.80;61.50
14577;DHT22;7375;46.072;14.470;2022-08-19T08:30:47;25.80;61.40
14577;DHT22;7375;46.072;14.470;2022-08-19T08:33:17;25.80;61.40
14577;DHT22;7375;46.072;14.470;2022-08-19T08:35:45;25.80;61.40
14577;DHT22;7375;46.072;14.470;2022-08-19T08:38:16;25.80;61.40
14577;DHT22;7375;46.072;14.470;2022-08-19T08:40:45;25.80;61.30
14577;DHT22;7375;46.072;14.470;2022-08-19T08:43:18;25.80;61.30
14577;DHT22;7375;46.072;14.470;2022-08-19T08:45:47;25.80;61.20
14577;DHT22;7375;46.072;14.470;2022-08-19T08:48:16;25.80;61.20
14577;DHT22;7375;46.072;14.470;2022-08-19T08:50:46;25.80;61.30
14577;DHT22;7375;46.072;14.470;2022-08-19T08:53:23;25.80;61.30
14577;DHT22;7375;46.072;14.470;2022-08-19T08:55:50;25.80;61.40
14577;DHT22;7375;46.072;14.470;2022-08-19T08:58:19;25.80;61.30
14577;DHT22;7375;46.072;14.470;2022-08-19T09:00:50;25.80;61.30
14577;DHT22;7375;46.072;14.470;2022-08-19T09:03:17;25.80;61.20
14577;DHT22;7375;46.072;14.470;2022-08-19T09:05:48;25.80;61.20
14577;DHT22;7375;46.072;14.470;2022-08-19T09:08:22;25.80;61.20
14577;DHT22;7375;46.072;14.470;2022-08-19T09:10:55;25.80;61.30
14577;DHT22;7375;46.072;14.470;2022-08-19T09:13:27;25.90;61.30
14577;DHT22;7375;46.072;14.470;2022-08-19T09:15:57;25.90;61.20
14577;DHT22;7375;46.072;14.470;2022-08-19T09:18:30;25.90;61.20
14577;DHT22;7375;46.072;14.470;2022-08-19T09:21:05;25.90;61.00
14577;DHT22;7375;46.072;14.470;2022-08-19T09:23:35;26.00;61.00
14577;DHT22;7375;46.072;14.470;2022-08-19T09:26:07;26.00;61.00
14577;DHT22;7375;46.072;14.470;2022-08-19T09:28:35;26.00;61.00
14577;DHT22;7375;46.072;14.470;2022-08-19T09:31:02;26.00;61.00
14577;DHT22;7375;46.072;14.470;2022-08-19T09:33:29;26.10;61.20
14577;DHT22;7375;46.072;14.470;2022-08-19T09:36:01;26.10;61.10
14577;DHT22;7375;46.072;14.470;2022-08-19T09:38:35;26.10;61.20
14577;DHT22;7375;46.072;14.470;2022-08-19T09:41:09;26.10;61.20
14577;DHT22;7375;46.072;14.470;2022-08-19T09:43:40;26.10;61.20
14577;DHT22;7375;46.072;14.470;2022-08-19T09:46:08;26.10;61.20
14577;DHT22;7375;46.072;14.470;2022-08-19T09:48:35;26.00;61.10
14577;DHT22;7375;46.072;14.470;2022-08-19T09:51:06;26.10;61.20
14577;DHT22;7375;46.072;14.470;2022-08-19T09:53:36;26.10;61.20
14577;DHT22;7375;46.072;14.470;2022-08-19T09:56:03;26.10;61.10
14577;DHT22;7375;46.072;14.470;2022-08-19T09:58:32;26.10;61.10
14577;DHT22;7375;46.072;14.470;2022-08-19T10:01:00;26.10;61.20
14577;DHT22;7375;46.072;14.470;2022-08-19T10:03:27;26.10;61.20
14577;DHT22;7375;46.072;14.470;2022-08-19T10:05:55;26.10;61.10
14577;DHT22;7375;46.072;14.470;2022-08-19T10:08:23;26.20;61.20
14577;DHT22;7375;46.072;14.470;2022-08-19T10:10:53;26.20;61.20
14577;DHT22;7375;46.072;14.470;2022-08-19T10:13:23;26.20;61.10
14577;DHT22;7375;46.072;14.470;2022-08-19T10:15:52;26.20;61.10
14577;DHT22;7375;46.072;14.470;2022-08-19T10:18:20;26.20;61.10
14577;DHT22;7375;46.072;14.470;2022-08-19T10:20:47;26.30;60.80
14577;DHT22;7375;46.072;14.470;2022-08-19T10:23:15;26.30;60.70
14577;DHT22;7375;46.072;14.470;2022-08-19T10:25:42;26.30;60.60
14577;DHT22;7375;46.072;14.470;2022-08-19T10:28:09;26.40;60.30
14577;DHT22;7375;46.072;14.470;2022-08-19T10:30:37;26.40;60.10
14577;DHT22;7375;46.072;14.470;2022-08-19T10:33:06;26.50;60.00
14577;DHT22;7375;46.072;14.470;2022-08-19T10:35:33;26.50;59.80
14577;DHT22;7375;46.072;14.470;2022-08-19T10:38:02;26.60;59.80
14577;DHT22;7375;46.072;14.470;2022-08-19T10:40:28;26.50;59.70
14577;DHT22;7375;46.072;14.470;2022-08-19T10:42:58;26.50;59.70
14577;DHT22;7375;46.072;14.470;2022-08-19T10:45:25;26.50;59.80
14577;DHT22;7375;46.072;14.470;2022-08-19T10:47:52;26.40;59.80
14577;DHT22;7375;46.072;14.470;2022-08-19T10:50:21;26.50;59.80
14577;DHT22;7375;46.072;14.470;2022-08-19T10:53:06;26.50;59.80
14577;DHT22;7375;46.072;14.470;2022-08-19T10:55:34;26.50;59.80
14577;DHT22;7375;46.072;14.470;2022-08-19T10:58:19;26.50;59.70
14577;DHT22;7375;46.072;14.470;2022-08-19T11:00:51;26.40;59.70
14577;DHT22;7375;46.072;14.470;2022-08-19T11:03:18;26.40;59.70
14577;DHT22;7375;46.072;14.470;2022-08-19T11:05:51;26.50;59.70
14577;DHT22;7375;46.072;14.470;2022-08-19T11:08:23;26.40;59.70
14577;DHT22;7375;46.072;14.470;2022-08-19T11:10:52;26.40;59.80
14577;DHT22;7375;46.072;14.470;2022-08-19T11:13:20;26.40;59.80
14577;DHT22;7375;46.072;14.470;2022-08-19T11:15:55;26.40;59.90
14577;DHT22;7375;46.072;14.470;2022-08-19T11:18:30;26.40;59.90
14577;DHT22;7375;46.072;14.470;2022-08-19T11:21:06;26.40;59.90
14577;DHT22;7375;46.072;14.470;2022-08-19T11:23:33;26.40;60.00
14577;DHT22;7375;46.072;14.470;2022-08-19T11:26:00;26.40;59.90
14577;DHT22;7375;46.072;14.470;2022-08-19T11:28:30;26.40;59.90
14577;DHT22;7375;46.072;14.470;2022-08-19T11:30:57;26.40;60.00
14577;DHT22;7375;46.072;14.470;2022-08-19T11:33:24;26.40;60.10
14577;DHT22;7375;46.072;14.470;2022-08-19T11:35:52;26.40;60.10
14577;DHT22;7375;46.072;14.470;2022-08-19T11:38:23;26.40;60.10
14577;DHT22;7375;46.072;14.470;2022-08-19T11:40:56;26.40;60.00
14577;DHT22;7375;46.072;14.470;2022-08-19T11:43:23;26.50;59.80
14577;DHT22;7375;46.072;14.470;2022-08-19T11:45:51;26.50;59.70
14577;DHT22;7375;46.072;14.470;2022-08-19T11:48:18;26.50;59.60
14577;DHT22;7375;46.072;14.470;2022-08-19T11:50:48;26.50;59.50
14577;DHT22;7375;46.072;14.470;2022-08-19T11:53:15;26.50;59.50
14577;DHT22;7375;46.072;14.470;2022-08-19T11:55:47;26.50;59.40
14577;DHT22;7375;46.072;14.470;2022-08-19T11:58:15;26.60;59.50
14577;DHT22;7375;46.072;14.470;2022-08-19T12:00:42;26.60;59.50
14577;DHT22;7375;46.072;14.470;2022-08-19T12:03:10;26.50;59.40
14577;DHT22;7375;46.072;14.470;2022-08-19T12:05:41;26.50;59.50
14577;DHT22;7375;46.072;14.470;2022-08-19T12:08:11;26.50;59.60
14577;DHT22;7375;46.072;14.470;2022-08-19T12:10:39;26.50;59.70
14577;DHT22;7375;46.072;14.470;2022-08-19T12:13:09;26.50;60.20
14577;DHT22;7375;46.072;14.470;2022-08-19T12:15:37;26.40;59.50
14577;DHT22;7375;46.072;14.470;2022-08-19T12:18:07;26.50;59.60
14577;DHT22;7375;46.072;14.470;2022-08-19T12:20:35;26.50;59.50
14577;DHT22;7375;46.072;14.470;2022-08-19T12:23:02;26.50;59.50
14577;DHT22;7375;46.072;14.470;2022-08-19T12:25:32;26.50;59.50
14577;DHT22;7375;46.072;14.470;2022-08-19T12:28:03;26.50;59.50
14577;DHT22;7375;46.072;14.470;2022-08-19T12:30:31;26.50;59.50
14577;DHT22;7375;46.072;14.470;2022-08-19T12:32:58;26.50;59.50
14577;DHT22;7375;46.072;14.470;2022-08-19T12:35:28;26.50;59.60
14577;DHT22;7375;46.072;14.470;2022-08-19T12:37:58;26.50;59.60
14577;DHT22;7375;46.072;14.470;2022-08-19T12:40:28;26.40;59.70
14577;DHT22;7375;46.072;14.470;2022-08-19T12:42:58;26.40;59.90
14577;DHT22;7375;46.072;14.470;2022-08-19T12:45:25;26.40;60.00
14577;DHT22;7375;46.072;14.470;2022-08-19T12:47:54;26.40;60.10
14577;DHT22;7375;46.072;14.470;2022-08-19T12:50:21;26.40;59.90
14577;DHT22;7375;46.072;14.470;2022-08-19T12:52:48;26.40;59.80
14577;DHT22;7375;46.072;14.470;2022-08-19T12:55:16;26.40;60.00
14577;DHT22;7375;46.072;14.470;2022-08-19T12:57:44;26.40;60.10
14577;DHT22;7375;46.072;14.470;2022-08-19T13:00:13;26.30;60.10
14577;DHT22;7375;46.072;14.470;2022-08-19T13:02:41;26.30;60.20
14577;DHT22;7375;46.072;14.470;2022-08-19T13:05:12;26.30;60.20
14577;DHT22;7375;46.072;14.470;2022-08-19T13:07:39;26.30;60.30
14577;DHT22;7375;46.072;14.470;2022-08-19T13:10:10;26.30;60.30
14577;DHT22;7375;46.072;14.470;2022-08-19T13:12:37;26.30;60.30
14577;DHT22;7375;46.072;14.470;2022-08-19T13:15:05;26.30;60.40
14577;DHT22;7375;46.072;14.470;2022-08-19T13:17:33;26.30;60.40
14577;DHT22;7375;46.072;14.470;2022-08-19T13:20:00;26.30;60.40
14577;DHT22;7375;46.072;14.470;2022-08-19T13:22:29;26.30;60.50
14577;DHT22;7375;46.072;14.470;2022-08-19T13:24:59;26.20;60.50
14577;DHT22;7375;46.072;14.470;2022-08-19T13:27:30;26.30;60.70
14577;DHT22;7375;46.072;14.470;2022-08-19T13:29:59;26.20;60.70
14577;DHT22;7375;46.072;14.470;2022-08-19T13:32:44;26.20;60.70
14577;DHT22;7375;46.072;14.470;2022-08-19T13:35:28;26.20;60.70
14577;DHT22;7375;46.072;14.470;2022-08-19T13:37:57;26.20;60.80
14577;DHT22;7375;46.072;14.470;2022-08-19T13:40:31;26.20;60.80
14577;DHT22;7375;46.072;14.470;2022-08-19T13:42:59;26.10;60.80
14577;DHT22;7375;46.072;14.470;2022-08-19T13:45:32;26.10;60.80
14577;DHT22;7375;46.072;14.470;2022-08-19T13:48:03;26.10;60.90
14577;DHT22;7375;46.072;14.470;2022-08-19T13:50:32;26.10;61.00
14577;DHT22;7375;46.072;14.470;2022-08-19T13:53:04;26.10;61.00
14577;DHT22;7375;46.072;14.470;2022-08-19T13:55:31;26.10;61.10
14577;DHT22;7375;46.072;14.470;2022-08-19T13:57:58;26.10;61.10
14577;DHT22;7375;46.072;14.470;2022-08-19T14:00:27;26.00;61.00
14577;DHT22;7375;46.072;14.470;2022-08-19T14:02:55;26.10;61.20
14577;DHT22;7375;46.072;14.470;2022-08-19T14:05:25;26.10;61.20
14577;DHT22;7375;46.072;14.470;2022-08-19T14:07:53;26.00;61.10
14577;DHT22;7375;46.072;14.470;2022-08-19T14:10:22;26.00;61.10
14577;DHT22;7375;46.072;14.470;2022-08-19T14:12:56;26.00;61.10
14577;DHT22;7375;46.072;14.470;2022-08-19T14:15:24;26.00;61.10
14577;DHT22;7375;46.072;14.470;2022-08-19T14:17:51;26.00;61.10
14577;DHT22;7375;46.072;14.470;2022-08-19T14:20:19;26.00;61.20
14577;DHT22;7375;46.072;14.470;2022-08-19T14:22:51;26.00;61.20
14577;DHT22;7375;46.072;14.470;2022-08-19T14:25:21;26.00;61.20
14577;DHT22;7375;46.072;14.470;2022-08-19T14:27:49;25.90;61.10
14577;DHT22;7375;46.072;14.470;2022-08-19T14:30:26;26.00;61.20
14577;DHT22;7375;46.072;14.470;2022-08-19T14:32:53;26.00;61.20
14577;DHT22;7375;46.072;14.470;2022-08-19T14:35:21;26.00;61.20
14577;DHT22;7375;46.072;14.470;2022-08-19T14:37:52;26.00;61.20
14577;DHT22;7375;46.072;14.470;2022-08-19T14:40:22;26.00;61.50
14577;DHT22;7375;46.072;14.470;2022-08-19T14:42:52;26.00;61.20
14577;DHT22;7375;46.072;14.470;2022-08-19T14:45:25;26.00;61.20
14577;DHT22;7375;46.072;14.470;2022-08-19T14:47:52;26.00;61.20
14577;DHT22;7375;46.072;14.470;2022-08-19T14:50:18;26.00;61.20
14577;DHT22;7375;46.072;14.470;2022-08-19T14:52:46;25.90;61.10
14577;DHT22;7375;46.072;14.470;2022-08-19T14:55:13;26.00;61.20
14577;DHT22;7375;46.072;14.470;2022-08-19T14:57:40;26.00;61.20
14577;DHT22;7375;46.072;14.470;2022-08-19T15:00:09;26.00;61.20
14577;DHT22;7375;46.072;14.470;2022-08-19T15:02:38;26.00;61.20
14577;DHT22;7375;46.072;14.470;2022-08-19T15:05:09;25.90;61.10
14577;DHT22;7375;46.072;14.470;2022-08-19T15:07:36;25.90;61.10
14577;DHT22;7375;46.072;14.470;2022-08-19T15:10:04;26.00;61.20
14577;DHT22;7375;46.072;14.470;2022-08-19T15:12:32;25.90;61.10
14577;DHT22;7375;46.072;14.470;2022-08-19T15:14:59;26.00;61.20
14577;DHT22;7375;46.072;14.470;2022-08-19T15:17:27;25.90;61.50
14577;DHT22;7375;46.072;14.470;2022-08-19T15:20:00;26.00;61.20
14577;DHT22;7375;46.072;14.470;2022-08-19T15:22:28;26.00;61.10
14577;DHT22;7375;46.072;14.470;2022-08-19T15:24:54;26.00;61.10
14577;DHT22;7375;46.072;14.470;2022-08-19T15:27:24;26.00;61.70
14577;DHT22;7375;46.072;14.470;2022-08-19T15:29:51;26.00;61.10
14577;DHT22;7375;46.072;14.470;2022-08-19T15:32:17;26.00;61.00
14577;DHT22;7375;46.072;14.470;2022-08-19T15:34:46;26.00;61.00
14577;DHT22;7375;46.072;14.470;2022-08-19T15:37:14;26.00;61.00
14577;DHT22;7375;46.072;14.470;2022-08-19T15:39:41;26.00;61.00
14577;DHT22;7375;46.072;14.470;2022-08-19T15:42:08;26.00;61.00